Flight Track Log - Related Links

Times and Time Zones

All times are in EDT time to prevent confusion due to time zone crossing. See the N589H flight status page for this flight to view local times or setup timezone preferences in your user account.

Time Position Orientation Groundspeed Altitude Reporting Facility
EDT Latitude Longitude Course Direction KTS MPH feet Rate Location/Type
Fri 06:32:58 PM 39.9000 -75.2500 294° West 158 182 800  Level Philadelphia TRACON
Fri 06:33:52 PM 39.9167 -75.3000 294° West 169 194 2,400 1,158 Climbing Philadelphia TRACON
Fri 06:34:52 PM 39.9167 -75.3667 270° West 232 267 3,000 429 Climbing Philadelphia TRACON
Fri 06:35:58 PM 39.9167 -75.4667 270° West 246 283 3,300 1,091 Climbing Philadelphia TRACON
Fri 06:37:15 PM 39.9139 -75.5694 268° West 245 282 5,600 1,897 Climbing New York Center
Fri 06:38:14 PM 39.9167 -75.6481 273° West 227 261 7,600 1,714 Climbing New York Center
Fri 06:39:14 PM 39.9178 -75.7239 271° West 220 253 9,000 700 Climbing New York Center
Fri 06:40:14 PM 39.9142 -75.8103 267° West 228 262 9,000 300 Level New York Center
Fri 06:41:14 PM 39.9150 -75.8889 271° West 239 275 9,600 1,000 Climbing New York Center
Fri 06:42:14 PM 39.9133 -75.9700 268° West 239 275 11,000 1,050 Climbing New York Center
Fri 06:43:14 PM 39.9111 -76.0672 268° West 234 269 11,700 1,050 Climbing New York Center
Fri 06:44:14 PM 39.9094 -76.1536 269° West 239 275 13,100 1,750 Climbing New York Center
Fri 06:44:50 PM 39.9092 -76.2025 270° West 234 269 14,500 2,125 Climbing New York Center
Fri 06:45:50 PM 39.9119 -76.2758 273° West 224 258 16,500 1,900 Climbing New York Center
Fri 06:46:50 PM 39.9150 -76.3492 273° West 214 246 18,300 1,800 Climbing New York Center
Fri 06:47:50 PM 39.9178 -76.4197 273° West 214 246 20,100 1,900 Climbing New York Center
Fri 06:48:50 PM 39.9206 -76.4903 273° West 214 246 22,100 1,835 Climbing New York Center
Fri 06:49:51 PM 39.9236 -76.5556 274° West 202 232 23,800 1,650 Climbing New York Center
Fri 06:50:50 PM 39.9267 -76.6233 273° West 197 227 25,400 1,613 Climbing New York Center
Fri 06:51:50 PM 39.9317 -76.6917 275° West 197 227 27,000 1,438 Climbing New York Center
Fri 06:52:51 PM 39.9344 -76.7594 273° West 197 227 28,300 1,100 Climbing New York Center
Fri 06:53:50 PM 39.9372 -76.8275 273° West 197 227 29,200 857 Climbing New York Center
Fri 06:54:50 PM 39.9417 -76.9036 274° West 202 232 30,000 850 Climbing New York Center
Fri 06:55:50 PM 39.9461 -76.9772 275° West 208 239 30,900 850 Climbing New York Center
Fri 06:56:50 PM 39.9481 -77.0558 272° West 213 245 31,700 550 Climbing New York Center
Fri 06:57:50 PM 39.9522 -77.1350 274° West 218 251 32,000 150 Climbing New York Center
Fri 06:58:50 PM 39.9558 -77.2219 273° West 230 265 32,000 50 Level New York Center
Fri 06:59:50 PM 39.9614 -77.3119 275° West 243 280 32,100 250 Climbing New York Center
Fri 07:00:50 PM 39.9647 -77.4017 273° West 253 291 32,500 443 Climbing New York Center
Fri 07:03:13 PM 39.9733 -77.6167 273° West 250 288 33,600 439 Climbing Cleveland Center
Fri 07:04:15 PM 39.9769 -77.7042 273° West 247 284 34,000 194 Climbing Cleveland Center
Fri 07:05:17 PM 39.9806 -77.7925 273° West 243 280 34,000  Level Cleveland Center
Fri 07:06:19 PM 39.9839 -77.9025 272° West 250 288 34,000  Level Cleveland Center
Fri 07:07:21 PM 39.9889 -77.9911 274° West 250 288 34,000  Level Cleveland Center
Fri 07:08:23 PM 39.9922 -78.0814 273° West 250 288 34,000  Level Cleveland Center
Fri 07:09:25 PM 39.9950 -78.1708 272° West 250 288 34,000  Level Cleveland Center
Fri 07:10:27 PM 39.9981 -78.2600 273° West 248 285 34,000  Level Cleveland Center
Fri 07:11:29 PM 40.0025 -78.3631 273° West 253 291 34,000  Level Cleveland Center
Fri 07:12:31 PM 40.0058 -78.4553 273° West 255 293 34,000  Level Cleveland Center
Fri 07:13:33 PM 40.0083 -78.5486 272° West 257 296 34,000  Level Cleveland Center
Fri 07:14:35 PM 40.0125 -78.6431 273° West 260 299 34,000  Level Cleveland Center
Fri 07:15:37 PM 40.0156 -78.7564 272° West 261 300 34,000  Level Cleveland Center
Fri 07:16:39 PM 40.0181 -78.8517 272° West 263 303 34,000 97 Level Cleveland Center
Fri 07:17:41 PM 40.0214 -78.9456 273° West 263 303 34,200 339 Climbing Cleveland Center
Fri 07:18:43 PM 40.0247 -79.0464 273° West 256 295 34,700 387 Climbing Cleveland Center
Fri 07:19:45 PM 40.0267 -79.1350 272° West 250 288 35,000 145 Climbing Cleveland Center
Fri 07:20:47 PM 40.0297 -79.2242 273° West 249 287 35,000  Level Cleveland Center
Fri 07:21:49 PM 40.0331 -79.3158 273° West 251 289 35,000  Level Cleveland Center
Fri 07:22:51 PM 40.0347 -79.4086 271° West 257 296 35,000  Level Cleveland Center
Fri 07:23:53 PM 40.0367 -79.5014 272° West 257 296 35,000  Level Cleveland Center
Fri 07:24:55 PM 40.0394 -79.5953 272° West 258 297 35,000  Level Cleveland Center
Fri 07:25:57 PM 40.0411 -79.7072 271° West 259 298 35,000  Level Cleveland Center
Fri 07:26:59 PM 40.0433 -79.8017 272° West 260 299 35,000  Level Cleveland Center
Fri 07:28:00 PM 40.0458 -79.8947 272° West 259 298 35,000  Level Cleveland Center
Fri 07:29:02 PM 40.0483 -79.9886 272° West 259 298 35,000 145 Level Cleveland Center
Fri 07:30:04 PM 40.0492 -80.0811 271° West 259 298 35,300 339 Climbing Cleveland Center
Fri 07:31:06 PM 40.0517 -80.1717 272° West 253 291 35,700 339 Climbing Cleveland Center
Fri 07:32:08 PM 40.0536 -80.2622 272° West 251 289 36,000 145 Climbing Cleveland Center
Fri 07:33:10 PM 40.0553 -80.3717 271° West 251 289 36,000  Level Cleveland Center
Fri 07:34:11 PM 40.0564 -80.4658 271° West 255 293 36,000  Level Cleveland Center
Fri 07:35:13 PM 40.0578 -80.5614 271° West 259 298 36,000  Level Cleveland Center
Fri 07:36:15 PM 40.0592 -80.6578 271° West 262 302 36,000  Level Cleveland Center
Fri 07:37:17 PM 40.0606 -80.7511 271° West 261 300 36,000  Level Cleveland Center
Fri 07:38:18 PM 40.0619 -80.8481 271° West 263 303 36,000  Level Cleveland Center
Fri 07:39:10 PM 40.0625 -80.9425 270° West 266 306 36,000  Level Indianapolis Center
Fri 07:40:12 PM 40.0633 -81.0394 271° West 266 306 36,000  Level Indianapolis Center
Fri 07:41:14 PM 40.0650 -81.1361 271° West 266 306 36,000  Level Indianapolis Center
Fri 07:42:16 PM 40.0650 -81.2303 270° West 262 302 36,000  Level Indianapolis Center
Fri 07:43:17 PM 40.0664 -81.3228 271° West 259 298 36,000  Level Indianapolis Center
Fri 07:44:19 PM 40.0667 -81.4186 270° West 259 298 36,000  Level Indianapolis Center
Fri 07:45:21 PM 40.0683 -81.5092 271° West 254 292 36,000  Level Indianapolis Center
Fri 07:46:23 PM 40.0675 -81.6022 269° West 253 291 36,000  Level Indianapolis Center
Fri 07:47:25 PM 40.0653 -81.7103 268° West 253 291 36,000  Level Indianapolis Center
Fri 07:48:27 PM 40.0636 -81.7903 268° West 253 291 36,000  Level Indianapolis Center
Fri 07:49:29 PM 40.0619 -81.8811 269° West 253 291 36,000  Level Indianapolis Center
Fri 07:50:31 PM 40.0603 -81.9906 269° West 252 290 36,000  Level Indianapolis Center
Fri 07:51:33 PM 40.0572 -82.0814 268° West 252 290 36,000  Level Indianapolis Center
Fri 07:52:35 PM 40.0569 -82.1733 270° West 252 290 36,000  Level Indianapolis Center
Fri 07:53:37 PM 40.0536 -82.2650 267° West 253 291 36,000  Level Indianapolis Center
Fri 07:54:38 PM 40.0533 -82.3583 270° West 253 291 36,000  Level Indianapolis Center
Fri 07:55:40 PM 40.0500 -82.4486 267° West 253 291 36,000  Level Indianapolis Center
Fri 07:56:42 PM 40.0472 -82.5572 268° West 253 291 36,000  Level Indianapolis Center
Fri 07:57:44 PM 40.0458 -82.6456 269° West 250 288 36,000  Level Indianapolis Center
Fri 07:58:46 PM 40.0436 -82.7344 268° West 247 284 36,000  Level Indianapolis Center
Fri 07:59:48 PM 40.0408 -82.8225 268° West 247 284 36,000  Level Indianapolis Center
Fri 08:00:50 PM 40.0381 -82.9117 268° West 246 283 36,000  Level Indianapolis Center
Fri 08:01:52 PM 40.0358 -83.0031 268° West 248 285 36,000  Level Indianapolis Center
Fri 08:02:54 PM 40.0325 -83.1161 268° West 257 296 36,000  Level Indianapolis Center
Fri 08:03:56 PM 40.0289 -83.2133 267° West 265 305 36,000  Level Indianapolis Center
Fri 08:04:58 PM 40.0267 -83.3094 268° West 266 306 36,000 97 Level Indianapolis Center
Fri 08:06:00 PM 40.0231 -83.4067 267° West 268 308 36,200 290 Climbing Indianapolis Center
Fri 08:07:02 PM 40.0203 -83.5006 268° West 267 307 36,600 339 Climbing Indianapolis Center
Fri 08:08:04 PM 40.0164 -83.6111 267° West 262 302 36,900 290 Climbing Indianapolis Center
Fri 08:09:06 PM 40.0128 -83.7033 267° West 261 300 37,200 242 Climbing Indianapolis Center
Fri 08:10:08 PM 40.0100 -83.7967 268° West 261 300 37,400 194 Climbing Indianapolis Center
Fri 08:11:10 PM 40.0067 -83.8925 267° West 262 302 37,600 242 Climbing Indianapolis Center
Fri 08:12:12 PM 40.0031 -83.9875 267° West 264 304 37,900 194 Climbing Indianapolis Center
Fri 08:13:14 PM 39.9986 -84.1011 267° West 264 304 38,000 48 Climbing Indianapolis Center
Fri 08:14:16 PM 39.9944 -84.1994 267° West 267 307 38,000  Level Indianapolis Center
Fri 08:15:18 PM 39.9911 -84.2997 268° West 272 313 38,000  Level Indianapolis Center
Fri 08:16:20 PM 39.9869 -84.3989 267° West 273 314 38,000  Level Indianapolis Center
Fri 08:17:21 PM 39.9825 -84.4989 267° West 274 315 38,000  Level Indianapolis Center
Fri 08:18:23 PM 39.9783 -84.5994 267° West 275 316 38,000  Level Indianapolis Center
Fri 08:19:25 PM 39.9733 -84.7197 267° West 276 318 38,000  Level Indianapolis Center
Fri 08:20:27 PM 39.9689 -84.8186 267° West 275 316 38,000  Level Indianapolis Center
Fri 08:21:29 PM 39.9653 -84.9069 267° West 275 316 38,000  Level Indianapolis Center
Fri 08:22:31 PM 39.9589 -85.0239 266° West 274 315 38,000  Level Indianapolis Center
Fri 08:23:32 PM 39.9550 -85.1222 267° West 273 314 38,000  Level Indianapolis Center
Fri 08:24:34 PM 39.9508 -85.2203 267° West 273 314 38,000  Level Indianapolis Center
Fri 08:25:36 PM 39.9467 -85.3172 267° West 272 313 38,000  Level Indianapolis Center
Fri 08:26:38 PM 39.9414 -85.4142 266° West 271 312 38,000  Level Indianapolis Center
Fri 08:27:39 PM 39.9367 -85.5122 266° West 271 312 38,000  Level Indianapolis Center
Fri 08:28:41 PM 39.9314 -85.6275 267° West 270 311 38,000  Level Indianapolis Center
Fri 08:29:43 PM 39.9261 -85.7239 266° West 269 310 38,000  Level Indianapolis Center
Fri 08:30:45 PM 39.9211 -85.8214 266° West 269 310 38,000  Level Indianapolis Center
Fri 08:31:46 PM 39.9158 -85.9167 266° West 268 308 38,000  Level Indianapolis Center
Fri 08:32:48 PM 39.9108 -86.0153 266° West 271 312 38,000  Level Indianapolis Center
Fri 08:33:50 PM 39.9056 -86.1111 266° West 271 312 38,000  Level Indianapolis Center
Fri 08:34:51 PM 39.8983 -86.2264 265° West 271 312 38,000  Level Indianapolis Center
Fri 08:35:53 PM 39.8928 -86.3217 266° West 271 312 38,000  Level Indianapolis Center
Fri 08:36:55 PM 39.8875 -86.4161 266° West 270 311 38,000  Level Indianapolis Center
Fri 08:37:56 PM 39.8822 -86.5122 266° West 270 311 38,000  Level Indianapolis Center
Fri 08:38:58 PM 39.8767 -86.6072 266° West 269 310 38,000  Level Indianapolis Center
Fri 08:40:00 PM 39.8717 -86.7042 266° West 269 310 38,000  Level Indianapolis Center
Fri 08:41:01 PM 39.8642 -86.8194 265° West 269 310 38,000  Level Indianapolis Center
Fri 08:42:03 PM 39.8581 -86.9161 265° West 269 310 38,000  Level Indianapolis Center
Fri 08:43:04 PM 39.8517 -87.0128 265° West 269 310 38,000  Level Indianapolis Center
Fri 08:44:06 PM 39.8458 -87.1108 266° West 269 310 38,000  Level Indianapolis Center
Fri 08:45:07 PM 39.8397 -87.2086 265° West 270 311 38,000  Level Indianapolis Center
Fri 08:46:09 PM 39.8333 -87.3028 265° West 267 307 38,000  Level Indianapolis Center
Fri 08:47:11 PM 39.8275 -87.3992 266° West 267 307 38,000  Level Indianapolis Center
Fri 08:48:12 PM 39.8200 -87.5147 265° West 267 307 38,000  Level Indianapolis Center
Fri 08:49:14 PM 39.8139 -87.6136 265° West 269 310 38,000  Level Indianapolis Center
Fri 08:50:15 PM 39.8069 -87.7092 265° West 269 310 38,000  Level Indianapolis Center
Fri 08:51:17 PM 39.7997 -87.8044 264° West 269 310 38,000  Level Indianapolis Center
Fri 08:52:18 PM 39.7928 -87.9025 265° West 269 310 38,000  Level Indianapolis Center
Fri 08:53:19 PM 39.7856 -87.9972 264° West 269 310 38,000  Level Indianapolis Center
Fri 08:54:21 PM 39.7800 -88.0922 266° West 269 310 38,000  Level Indianapolis Center
Fri 08:55:19 PM 39.7692 -88.1961 262° West 268 308 38,000  Level Kansas City Center
Fri 08:56:22 PM 39.7644 -88.2797 266° West 265 305 38,000  Level Kansas City Center
Fri 08:57:22 PM 39.7556 -88.3936 264° West 263 303 38,000  Level Kansas City Center
Fri 08:58:25 PM 39.7500 -88.4881 266° West 263 303 38,000  Level Kansas City Center
Fri 08:59:26 PM 39.7431 -88.5822 265° West 263 303 38,000  Level Kansas City Center
Fri 09:00:27 PM 39.7358 -88.6800 265° West 265 305 38,000  Level Kansas City Center
Fri 09:01:28 PM 39.7275 -88.7742 263° West 265 305 38,000  Level Kansas City Center
Fri 09:02:32 PM 39.7211 -88.8728 265° West 268 308 38,000  Level Kansas City Center
Fri 09:03:31 PM 39.7133 -88.9686 264° West 269 310 38,000  Level Kansas City Center
Fri 09:04:33 PM 39.7056 -89.0669 264° West 270 311 38,000  Level Kansas City Center
Fri 09:05:37 PM 39.6953 -89.1856 264° West 271 312 38,000  Level Kansas City Center
Fri 09:06:37 PM 39.6883 -89.2736 264° West 271 312 38,000  Level Kansas City Center
Fri 09:07:39 PM 39.6797 -89.3731 264° West 275 316 38,000  Level Kansas City Center
Fri 09:08:42 PM 39.6722 -89.4717 264° West 275 316 38,000  Level Kansas City Center
Fri 09:09:43 PM 39.6614 -89.5922 263° West 277 319 38,000  Level Kansas City Center
Fri 09:10:44 PM 39.6528 -89.6931 264° West 279 321 38,000  Level Kansas City Center
Fri 09:11:45 PM 39.6439 -89.7919 263° West 279 321 38,000  Level Kansas City Center
Fri 09:12:48 PM 39.6356 -89.8903 264° West 279 321 38,000  Level Kansas City Center
Fri 09:13:49 PM 39.6272 -89.9875 264° West 278 320 38,000  Level Kansas City Center
Fri 09:14:49 PM 39.6178 -90.0850 263° West 275 316 38,000  Level Kansas City Center
Fri 09:15:53 PM 39.6069 -90.2017 263° West 275 316 38,000  Level Kansas City Center
Fri 09:16:53 PM 39.5986 -90.2986 264° West 275 316 38,000  Level Kansas City Center
Fri 09:17:57 PM 39.5892 -90.3944 263° West 274 315 38,000  Level Kansas City Center
Fri 09:18:57 PM 39.5808 -90.4922 264° West 274 315 38,000  Level Kansas City Center
Fri 09:19:59 PM 39.5717 -90.5897 263° West 274 315 38,000  Level Kansas City Center
Fri 09:21:01 PM 39.5625 -90.6858 263° West 273 314 38,000  Level Kansas City Center
Fri 09:22:02 PM 39.5533 -90.7808 263° West 273 314 38,000  Level Kansas City Center
Fri 09:23:05 PM 39.5414 -90.8950 262° West 273 314 38,000  Level Kansas City Center
Fri 09:24:06 PM 39.5336 -90.9894 264° West 271 312 38,000  Level Kansas City Center
Fri 09:25:07 PM 39.5228 -91.0869 262° West 271 312 38,000  Level Kansas City Center
Fri 09:26:09 PM 39.5136 -91.1822 263° West 271 312 38,000  Level Kansas City Center
Fri 09:27:11 PM 39.5044 -91.2783 263° West 271 312 38,000  Level Kansas City Center
Fri 09:28:11 PM 39.4942 -91.3733 262° West 271 312 38,000  Level Kansas City Center
Fri 09:29:12 PM 39.4853 -91.4681 263° West 270 311 38,000  Level Kansas City Center
Fri 09:30:16 PM 39.4733 -91.5828 262° West 270 311 38,000  Level Kansas City Center
Fri 09:31:15 PM 39.4644 -91.6767 263° West 269 310 38,000  Level Kansas City Center
Fri 09:32:20 PM 39.4544 -91.7703 262° West 269 310 38,000  Level Kansas City Center
Fri 09:33:21 PM 39.4433 -91.8653 261° West 269 310 38,000  Level Kansas City Center
Fri 09:34:22 PM 39.4342 -91.9600 263° West 269 310 38,000  Level Kansas City Center
Fri 09:35:23 PM 39.4244 -92.0547 262° West 269 310 38,000  Level Kansas City Center
Fri 09:36:24 PM 39.4117 -92.1689 262° West 269 310 38,000  Level Kansas City Center
Fri 09:37:25 PM 39.4017 -92.2656 262° West 269 310 38,000  Level Kansas City Center
Fri 09:38:30 PM 39.3906 -92.3586 261° West 269 310 38,000  Level Kansas City Center
Fri 09:39:30 PM 39.3803 -92.4525 262° West 269 310 38,000 -341 Level Kansas City Center
Fri 09:40:33 PM 39.3703 -92.5464 262° West 267 307 37,300 -1,306 Descending Kansas City Center
Fri 09:41:34 PM 39.3578 -92.6500 261° West 279 321 35,300 -2,164 Descending Kansas City Center
Fri 09:42:35 PM 39.3436 -92.7789 262° West 298 343 32,900 -2,146 Descending Kansas City Center
Fri 09:43:37 PM 39.3317 -92.8811 261° West 297 342 30,900 -1,967 Descending Kansas City Center
Fri 09:44:37 PM 39.3194 -92.9856 261° West 295 339 28,900 -1,983 Descending Kansas City Center
Fri 09:45:38 PM 39.3075 -93.0944 262° West 300 345 26,900 -2,164 Descending Kansas City Center
Fri 09:46:39 PM 39.2942 -93.2031 261° West 306 352 24,500 -2,352 Descending Kansas City Center
Fri 09:47:43 PM 39.2822 -93.3108 262° West 306 352 22,000 -2,619 Descending Kansas City Center
Fri 09:48:45 PM 39.2672 -93.4325 261° West 303 349 19,000 -3,074 Descending Kansas City Center
Fri 09:49:44 PM 39.2572 -93.5217 262° West 265 305 15,800 -3,171 Descending Kansas City Center
Fri 09:50:48 PM 39.2461 -93.6128 261° West 264 304 12,500 -2,688 Descending Kansas City Center
Fri 09:51:49 PM 39.2328 -93.7147 260° West 263 303 10,200 -1,574 Descending Kansas City Center
Fri 09:52:50 PM 39.2236 -93.7961 262° West 241 277 9,300 -1,033 Descending Kansas City Center
Fri 09:53:51 PM 39.2111 -93.8944 261° West 245 282 8,100 -581 Descending Kansas City Center
Fri 09:54:54 PM 39.2003 -93.9781 261° West 249 287 8,100 -432 Level Kansas City Center
Fri 09:55:56 PM 39.1797 -94.0750 255° West 249 287 7,200 -1,268 Descending Kansas City Center
Fri 09:56:57 PM 39.1539 -94.1592 248° West 259 298 5,500 -1,073 Descending Kansas City Center
Fri 09:57:59 PM 39.1286 -94.2419 249° West 260 299 5,000 -397 Descending Kansas City Center
Fri 09:58:58 PM 39.1022 -94.3361 250° West 254 292 4,700 -500 Descending Kansas City Center
Fri 09:59:59 PM 39.0792 -94.4131 249° West 243 280 4,000 -488 Descending Kansas City Center
Fri 10:01:01 PM 39.0575 -94.4942 251° West 219 252 3,700 -484 Descending Kansas City Center
Fri 10:02:03 PM 39.0542 -94.5514 266° West 175 201 3,000 -286 Descending Kansas City Center
Fri 10:03:07 PM 39.0542 -94.5989 270° West 146 168 3,100 -683 Climbing Kansas City Center
Fri 10:04:06 PM 39.0875 -94.6036 354° North 114 131 1,600 -984 Descending Kansas City Center
Fri 10:05:09 PM 39.1189 -94.5958 11° North 112 129 1,100 -476 Descending Kansas City Center

Login

Don't have an account? Register now (free) for customized features, flight alerts, and more!